sensor_id;sensor_type;location;lat;lon;timestamp;temperature;humidity
85456;DHT22;75846;43.732;10.404;2024-03-23T00:52:15;12.80;99.90
85456;DHT22;75846;43.732;10.404;2024-03-23T00:54:41;12.90;99.90
85456;DHT22;75846;43.732;10.404;2024-03-23T00:57:08;12.90;99.90
85456;DHT22;75846;43.732;10.404;2024-03-23T00:59:34;13.00;99.90
85456;DHT22;75846;43.732;10.404;2024-03-23T01:02:01;13.10;99.90
85456;DHT22;75846;43.732;10.404;2024-03-23T01:04:27;13.10;99.90
85456;DHT22;75846;43.732;10.404;2024-03-23T01:06:55;13.00;99.90
85456;DHT22;75846;43.732;10.404;2024-03-23T01:09:22;12.90;99.90
85456;DHT22;75846;43.732;10.404;2024-03-23T01:11:49;13.00;99.90
85456;DHT22;75846;43.732;10.404;2024-03-23T01:14:15;12.90;99.90
85456;DHT22;75846;43.732;10.404;2024-03-23T01:16:42;12.90;99.90
85456;DHT22;75846;43.732;10.404;2024-03-23T01:19:08;12.80;99.90
85456;DHT22;75846;43.732;10.404;2024-03-23T01:21:36;12.80;99.90
85456;DHT22;75846;43.732;10.404;2024-03-23T01:24:02;12.90;99.90
85456;DHT22;75846;43.732;10.404;2024-03-23T01:26:30;13.00;99.90
85456;DHT22;75846;43.732;10.404;2024-03-23T01:28:57;13.10;99.90
85456;DHT22;75846;43.732;10.404;2024-03-23T01:31:24;13.00;99.90
85456;DHT22;75846;43.732;10.404;2024-03-23T01:33:50;13.00;99.90
85456;DHT22;75846;43.732;10.404;2024-03-23T01:36:18;12.90;99.90
85456;DHT22;75846;43.732;10.404;2024-03-23T01:38:44;12.80;99.90
85456;DHT22;75846;43.732;10.404;2024-03-23T01:41:11;12.90;99.90
85456;DHT22;75846;43.732;10.404;2024-03-23T01:43:38;12.90;99.90
85456;DHT22;75846;43.732;10.404;2024-03-23T01:46:06;12.70;99.90
85456;DHT22;75846;43.732;10.404;2024-03-23T01:48:33;12.60;99.90
85456;DHT22;75846;43.732;10.404;2024-03-23T01:51:00;12.50;99.90
85456;DHT22;75846;43.732;10.404;2024-03-23T01:53:27;12.50;99.90
85456;DHT22;75846;43.732;10.404;2024-03-23T01:55:54;12.40;99.90
85456;DHT22;75846;43.732;10.404;2024-03-23T01:58:20;12.40;99.90
85456;DHT22;75846;43.732;10.404;2024-03-23T02:00:49;12.40;99.90
85456;DHT22;75846;43.732;10.404;2024-03-23T02:03:24;12.30;99.90
85456;DHT22;75846;43.732;10.404;2024-03-23T02:05:52;12.30;99.90
85456;DHT22;75846;43.732;10.404;2024-03-23T02:08:20;12.20;99.90
85456;DHT22;75846;43.732;10.404;2024-03-23T02:10:48;12.30;99.90
85456;DHT22;75846;43.732;10.404;2024-03-23T02:13:14;12.30;99.90
85456;DHT22;75846;43.732;10.404;2024-03-23T02:15:42;12.40;99.90
85456;DHT22;75846;43.732;10.404;2024-03-23T02:18:09;12.40;99.90
85456;DHT22;75846;43.732;10.404;2024-03-23T02:20:37;12.30;99.90
85456;DHT22;75846;43.732;10.404;2024-03-23T02:23:05;12.30;99.90
85456;DHT22;75846;43.732;10.404;2024-03-23T02:25:32;12.30;99.90
85456;DHT22;75846;43.732;10.404;2024-03-23T02:27:59;12.40;99.90
85456;DHT22;75846;43.732;10.404;2024-03-23T02:30:27;12.40;99.90
85456;DHT22;75846;43.732;10.404;2024-03-23T02:32:53;12.30;99.90
85456;DHT22;75846;43.732;10.404;2024-03-23T02:35:20;12.40;99.90
85456;DHT22;75846;43.732;10.404;2024-03-23T02:37:46;12.40;99.90
85456;DHT22;75846;43.732;10.404;2024-03-23T02:40:16;12.40;99.90
85456;DHT22;75846;43.732;10.404;2024-03-23T02:42:42;12.40;99.90
85456;DHT22;75846;43.732;10.404;2024-03-23T02:45:09;12.40;99.90
85456;DHT22;75846;43.732;10.404;2024-03-23T02:47:35;12.40;99.90
85456;DHT22;75846;43.732;10.404;2024-03-23T02:50:03;12.40;99.90
85456;DHT22;75846;43.732;10.404;2024-03-23T02:52:30;12.50;99.90
85456;DHT22;75846;43.732;10.404;2024-03-23T02:54:57;12.60;99.90
85456;DHT22;75846;43.732;10.404;2024-03-23T02:57:24;12.70;99.90
85456;DHT22;75846;43.732;10.404;2024-03-23T02:59:51;12.80;99.90
85456;DHT22;75846;43.732;10.404;2024-03-23T03:02:18;12.60;99.90
85456;DHT22;75846;43.732;10.404;2024-03-23T03:04:45;12.80;99.90
85456;DHT22;75846;43.732;10.404;2024-03-23T03:07:11;12.90;99.90
85456;DHT22;75846;43.732;10.404;2024-03-23T03:09:38;12.90;99.90
85456;DHT22;75846;43.732;10.404;2024-03-23T03:12:05;13.00;99.90
85456;DHT22;75846;43.732;10.404;2024-03-23T03:14:34;13.00;99.90
85456;DHT22;75846;43.732;10.404;2024-03-23T03:17:00;13.00;99.90
85456;DHT22;75846;43.732;10.404;2024-03-23T03:19:27;13.10;99.90
85456;DHT22;75846;43.732;10.404;2024-03-23T03:21:53;13.20;99.90
85456;DHT22;75846;43.732;10.404;2024-03-23T03:24:21;13.20;99.90
85456;DHT22;75846;43.732;10.404;2024-03-23T03:26:47;13.20;99.90
85456;DHT22;75846;43.732;10.404;2024-03-23T03:29:15;13.30;99.90
85456;DHT22;75846;43.732;10.404;2024-03-23T03:31:43;13.40;99.90
85456;DHT22;75846;43.732;10.404;2024-03-23T03:34:10;13.50;99.90
85456;DHT22;75846;43.732;10.404;2024-03-23T03:36:36;13.50;99.90
85456;DHT22;75846;43.732;10.404;2024-03-23T03:39:03;13.60;99.90
85456;DHT22;75846;43.732;10.404;2024-03-23T03:41:31;13.60;99.90
85456;DHT22;75846;43.732;10.404;2024-03-23T03:43:58;13.60;99.90
85456;DHT22;75846;43.732;10.404;2024-03-23T03:46:27;13.50;99.90
85456;DHT22;75846;43.732;10.404;2024-03-23T03:48:56;13.50;99.90
85456;DHT22;75846;43.732;10.404;2024-03-23T03:51:22;13.50;99.90
85456;DHT22;75846;43.732;10.404;2024-03-23T03:53:49;13.50;99.90
85456;DHT22;75846;43.732;10.404;2024-03-23T03:56:15;13.60;99.90
85456;DHT22;75846;43.732;10.404;2024-03-23T03:58:43;13.60;99.90
85456;DHT22;75846;43.732;10.404;2024-03-23T04:01:09;13.70;99.90
85456;DHT22;75846;43.732;10.404;2024-03-23T04:03:36;13.70;99.90
85456;DHT22;75846;43.732;10.404;2024-03-23T04:06:04;13.70;99.90
85456;DHT22;75846;43.732;10.404;2024-03-23T04:08:31;13.60;99.90
85456;DHT22;75846;43.732;10.404;2024-03-23T04:10:57;13.70;99.90
85456;DHT22;75846;43.732;10.404;2024-03-23T04:13:24;13.60;99.90
85456;DHT22;75846;43.732;10.404;2024-03-23T04:15:54;13.60;99.90
85456;DHT22;75846;43.732;10.404;2024-03-23T04:18:21;13.50;99.90
85456;DHT22;75846;43.732;10.404;2024-03-23T04:20:48;13.60;99.90
85456;DHT22;75846;43.732;10.404;2024-03-23T04:23:16;13.60;99.90
85456;DHT22;75846;43.732;10.404;2024-03-23T04:25:42;13.60;99.90
85456;DHT22;75846;43.732;10.404;2024-03-23T04:28:10;13.70;99.90
85456;DHT22;75846;43.732;10.404;2024-03-23T04:30:36;13.80;99.90
85456;DHT22;75846;43.732;10.404;2024-03-23T04:33:04;13.80;99.90
85456;DHT22;75846;43.732;10.404;2024-03-23T04:35:30;13.80;99.90
85456;DHT22;75846;43.732;10.404;2024-03-23T04:37:58;13.80;99.90
85456;DHT22;75846;43.732;10.404;2024-03-23T04:40:27;13.90;99.90
85456;DHT22;75846;43.732;10.404;2024-03-23T04:42:54;14.00;99.90
85456;DHT22;75846;43.732;10.404;2024-03-23T04:45:21;14.00;99.90
85456;DHT22;75846;43.732;10.404;2024-03-23T04:47:48;14.10;99.90
85456;DHT22;75846;43.732;10.404;2024-03-23T04:50:15;13.90;99.90
85456;DHT22;75846;43.732;10.404;2024-03-23T04:52:42;13.90;99.90
85456;DHT22;75846;43.732;10.404;2024-03-23T04:55:09;13.80;99.90
85456;DHT22;75846;43.732;10.404;2024-03-23T04:57:38;13.90;99.90
85456;DHT22;75846;43.732;10.404;2024-03-23T05:00:07;13.90;99.90
85456;DHT22;75846;43.732;10.404;2024-03-23T05:02:46;14.00;99.90
85456;DHT22;75846;43.732;10.404;2024-03-23T05:05:13;13.90;99.90
85456;DHT22;75846;43.732;10.404;2024-03-23T05:07:39;13.90;99.90
85456;DHT22;75846;43.732;10.404;2024-03-23T05:10:08;13.80;99.90
85456;DHT22;75846;43.732;10.404;2024-03-23T05:12:36;13.80;99.90
85456;DHT22;75846;43.732;10.404;2024-03-23T05:15:05;14.00;99.90
85456;DHT22;75846;43.732;10.404;2024-03-23T05:17:33;14.10;99.90
85456;DHT22;75846;43.732;10.404;2024-03-23T05:20:00;14.10;99.90
85456;DHT22;75846;43.732;10.404;2024-03-23T05:22:26;14.20;99.90
85456;DHT22;75846;43.732;10.404;2024-03-23T05:24:54;14.00;99.90
85456;DHT22;75846;43.732;10.404;2024-03-23T05:27:20;14.00;99.90
85456;DHT22;75846;43.732;10.404;2024-03-23T05:29:47;14.00;99.90
85456;DHT22;75846;43.732;10.404;2024-03-23T05:32:15;14.00;99.90
85456;DHT22;75846;43.732;10.404;2024-03-23T05:34:44;13.80;99.90
85456;DHT22;75846;43.732;10.404;2024-03-23T05:37:10;13.80;99.90
85456;DHT22;75846;43.732;10.404;2024-03-23T05:39:37;13.70;99.90
85456;DHT22;75846;43.732;10.404;2024-03-23T05:42:03;13.60;99.90
85456;DHT22;75846;43.732;10.404;2024-03-23T05:44:30;13.70;99.90
85456;DHT22;75846;43.732;10.404;2024-03-23T05:46:57;13.80;99.90
85456;DHT22;75846;43.732;10.404;2024-03-23T05:49:25;13.90;99.90
85456;DHT22;75846;43.732;10.404;2024-03-23T05:51:51;14.00;99.90
85456;DHT22;75846;43.732;10.404;2024-03-23T05:54:21;13.80;99.90
85456;DHT22;75846;43.732;10.404;2024-03-23T05:56:47;13.70;99.90
85456;DHT22;75846;43.732;10.404;2024-03-23T05:59:14;13.70;99.90
85456;DHT22;75846;43.732;10.404;2024-03-23T06:01:40;13.80;99.90
85456;DHT22;75846;43.732;10.404;2024-03-23T06:04:07;13.90;99.90
85456;DHT22;75846;43.732;10.404;2024-03-23T06:06:34;13.90;99.90
85456;DHT22;75846;43.732;10.404;2024-03-23T06:09:01;13.90;99.90
85456;DHT22;75846;43.732;10.404;2024-03-23T06:11:29;14.00;99.90
85456;DHT22;75846;43.732;10.404;2024-03-23T06:13:55;14.10;99.90
85456;DHT22;75846;43.732;10.404;2024-03-23T06:16:23;14.20;99.90
85456;DHT22;75846;43.732;10.404;2024-03-23T06:18:50;14.20;99.90
85456;DHT22;75846;43.732;10.404;2024-03-23T06:21:17;14.30;99.90
85456;DHT22;75846;43.732;10.404;2024-03-23T06:23:45;14.40;99.90
85456;DHT22;75846;43.732;10.404;2024-03-23T06:26:17;14.40;99.90
85456;DHT22;75846;43.732;10.404;2024-03-23T06:28:43;14.50;99.90
85456;DHT22;75846;43.732;10.404;2024-03-23T06:31:10;14.50;99.90
85456;DHT22;75846;43.732;10.404;2024-03-23T06:33:36;14.60;99.90
85456;DHT22;75846;43.732;10.404;2024-03-23T06:36:04;14.60;99.90
85456;DHT22;75846;43.732;10.404;2024-03-23T06:38:30;14.60;99.90
85456;DHT22;75846;43.732;10.404;2024-03-23T06:40:59;14.70;99.90
85456;DHT22;75846;43.732;10.404;2024-03-23T06:43:25;14.80;99.90
85456;DHT22;75846;43.732;10.404;2024-03-23T06:45:53;14.80;99.90
85456;DHT22;75846;43.732;10.404;2024-03-23T06:48:19;15.00;99.90
85456;DHT22;75846;43.732;10.404;2024-03-23T06:50:46;15.30;99.90
85456;DHT22;75846;43.732;10.404;2024-03-23T06:53:12;15.70;99.90
85456;DHT22;75846;43.732;10.404;2024-03-23T06:55:40;16.20;99.90
85456;DHT22;75846;43.732;10.404;2024-03-23T06:58:08;16.60;99.90
85456;DHT22;75846;43.732;10.404;2024-03-23T07:00:35;16.90;99.90
85456;DHT22;75846;43.732;10.404;2024-03-23T07:03:02;17.20;99.90
85456;DHT22;75846;43.732;10.404;2024-03-23T07:05:29;17.30;99.90
85456;DHT22;75846;43.732;10.404;2024-03-23T07:07:55;17.30;99.90
85456;DHT22;75846;43.732;10.404;2024-03-23T07:10:22;17.00;99.90
85456;DHT22;75846;43.732;10.404;2024-03-23T07:12:49;16.70;99.90
85456;DHT22;75846;43.732;10.404;2024-03-23T07:15:17;16.50;99.90
85456;DHT22;75846;43.732;10.404;2024-03-23T07:17:46;16.50;99.90
85456;DHT22;75846;43.732;10.404;2024-03-23T07:20:13;16.30;99.90
85456;DHT22;75846;43.732;10.404;2024-03-23T07:22:40;16.30;99.90
85456;DHT22;75846;43.732;10.404;2024-03-23T07:25:07;16.10;99.90
85456;DHT22;75846;43.732;10.404;2024-03-23T07:27:33;15.90;99.90
85456;DHT22;75846;43.732;10.404;2024-03-23T07:30:01;15.80;99.90
85456;DHT22;75846;43.732;10.404;2024-03-23T07:32:28;15.80;99.90
85456;DHT22;75846;43.732;10.404;2024-03-23T07:34:55;15.70;99.90
85456;DHT22;75846;43.732;10.404;2024-03-23T07:37:21;15.60;99.90
85456;DHT22;75846;43.732;10.404;2024-03-23T07:39:48;15.60;99.90
85456;DHT22;75846;43.732;10.404;2024-03-23T07:42:16;15.70;99.90
85456;DHT22;75846;43.732;10.404;2024-03-23T07:44:42;15.80;99.90
85456;DHT22;75846;43.732;10.404;2024-03-23T07:47:09;15.90;99.90
85456;DHT22;75846;43.732;10.404;2024-03-23T07:49:36;16.00;99.90
85456;DHT22;75846;43.732;10.404;2024-03-23T07:52:05;16.00;99.90
85456;DHT22;75846;43.732;10.404;2024-03-23T07:54:32;16.00;99.90
85456;DHT22;75846;43.732;10.404;2024-03-23T07:56:59;16.00;99.90
85456;DHT22;75846;43.732;10.404;2024-03-23T07:59:25;16.10;99.90
85456;DHT22;75846;43.732;10.404;2024-03-23T08:01:52;16.20;99.90
85456;DHT22;75846;43.732;10.404;2024-03-23T08:04:19;16.30;99.90
85456;DHT22;75846;43.732;10.404;2024-03-23T08:06:47;16.40;99.90
85456;DHT22;75846;43.732;10.404;2024-03-23T08:09:13;16.50;99.90
85456;DHT22;75846;43.732;10.404;2024-03-23T08:11:40;16.70;99.90
85456;DHT22;75846;43.732;10.404;2024-03-23T08:14:09;16.90;99.90
85456;DHT22;75846;43.732;10.404;2024-03-23T08:16:37;17.20;99.90
85456;DHT22;75846;43.732;10.404;2024-03-23T08:19:03;17.50;99.90
85456;DHT22;75846;43.732;10.404;2024-03-23T08:21:31;18.60;99.90
85456;DHT22;75846;43.732;10.404;2024-03-23T08:23:58;20.00;99.90
85456;DHT22;75846;43.732;10.404;2024-03-23T08:26:25;20.80;99.90
85456;DHT22;75846;43.732;10.404;2024-03-23T08:28:51;20.60;99.90
85456;DHT22;75846;43.732;10.404;2024-03-23T08:31:18;20.50;99.90
85456;DHT22;75846;43.732;10.404;2024-03-23T08:33:44;20.00;99.90
85456;DHT22;75846;43.732;10.404;2024-03-23T08:36:13;19.60;99.90
85456;DHT22;75846;43.732;10.404;2024-03-23T08:38:40;19.00;99.90
85456;DHT22;75846;43.732;10.404;2024-03-23T08:41:10;18.80;99.90
85456;DHT22;75846;43.732;10.404;2024-03-23T08:43:37;18.50;99.90
85456;DHT22;75846;43.732;10.404;2024-03-23T08:46:05;18.30;99.90
85456;DHT22;75846;43.732;10.404;2024-03-23T08:48:32;18.20;99.90
85456;DHT22;75846;43.732;10.404;2024-03-23T08:51:00;18.10;99.90
85456;DHT22;75846;43.732;10.404;2024-03-23T08:53:27;18.00;99.90
85456;DHT22;75846;43.732;10.404;2024-03-23T08:55:55;17.90;99.90
85456;DHT22;75846;43.732;10.404;2024-03-23T08:58:23;17.70;99.90
85456;DHT22;75846;43.732;10.404;2024-03-23T09:00:51;17.70;99.90
85456;DHT22;75846;43.732;10.404;2024-03-23T09:03:17;17.70;99.90
85456;DHT22;75846;43.732;10.404;2024-03-23T09:05:44;17.70;99.90
85456;DHT22;75846;43.732;10.404;2024-03-23T09:08:10;17.70;99.90
85456;DHT22;75846;43.732;10.404;2024-03-23T09:10:39;17.70;99.90
85456;DHT22;75846;43.732;10.404;2024-03-23T09:13:05;17.80;99.90
85456;DHT22;75846;43.732;10.404;2024-03-23T09:15:35;18.30;99.90
85456;DHT22;75846;43.732;10.404;2024-03-23T09:18:01;19.10;99.90
85456;DHT22;75846;43.732;10.404;2024-03-23T09:20:29;20.00;99.90
85456;DHT22;75846;43.732;10.404;2024-03-23T09:22:55;20.90;99.90
85456;DHT22;75846;43.732;10.404;2024-03-23T09:25:22;21.80;99.90
85456;DHT22;75846;43.732;10.404;2024-03-23T09:27:48;22.60;99.90
85456;DHT22;75846;43.732;10.404;2024-03-23T09:30:16;23.40;99.90
85456;DHT22;75846;43.732;10.404;2024-03-23T09:32:44;23.40;99.90
85456;DHT22;75846;43.732;10.404;2024-03-23T09:35:11;23.10;99.90
85456;DHT22;75846;43.732;10.404;2024-03-23T09:37:38;22.70;99.90
85456;DHT22;75846;43.732;10.404;2024-03-23T09:40:07;22.30;99.90
85456;DHT22;75846;43.732;10.404;2024-03-23T09:42:35;22.00;99.90
85456;DHT22;75846;43.732;10.404;2024-03-23T09:45:03;21.60;99.90
85456;DHT22;75846;43.732;10.404;2024-03-23T09:47:32;21.00;99.90
85456;DHT22;75846;43.732;10.404;2024-03-23T09:50:01;20.50;99.90
85456;DHT22;75846;43.732;10.404;2024-03-23T09:52:27;20.20;99.90
85456;DHT22;75846;43.732;10.404;2024-03-23T09:54:54;20.00;99.90
85456;DHT22;75846;43.732;10.404;2024-03-23T09:57:22;19.70;99.90
85456;DHT22;75846;43.732;10.404;2024-03-23T09:59:48;19.60;99.90
85456;DHT22;75846;43.732;10.404;2024-03-23T10:02:16;19.60;99.90
85456;DHT22;75846;43.732;10.404;2024-03-23T10:04:43;19.60;99.90
85456;DHT22;75846;43.732;10.404;2024-03-23T10:07:15;20.00;99.90
85456;DHT22;75846;43.732;10.404;2024-03-23T10:09:42;20.40;99.90
85456;DHT22;75846;43.732;10.404;2024-03-23T10:12:10;20.50;99.90
85456;DHT22;75846;43.732;10.404;2024-03-23T10:14:37;20.40;99.90
85456;DHT22;75846;43.732;10.404;2024-03-23T10:17:15;20.20;99.90
85456;DHT22;75846;43.732;10.404;2024-03-23T10:19:43;19.80;99.90
85456;DHT22;75846;43.732;10.404;2024-03-23T10:22:17;19.40;99.90
85456;DHT22;75846;43.732;10.404;2024-03-23T10:24:43;19.20;99.90
85456;DHT22;75846;43.732;10.404;2024-03-23T10:27:15;18.80;99.90
85456;DHT22;75846;43.732;10.404;2024-03-23T10:29:42;18.40;99.90
85456;DHT22;75846;43.732;10.404;2024-03-23T10:32:10;18.30;99.90
85456;DHT22;75846;43.732;10.404;2024-03-23T10:34:37;18.70;99.90
85456;DHT22;75846;43.732;10.404;2024-03-23T10:37:05;18.90;99.90
85456;DHT22;75846;43.732;10.404;2024-03-23T10:39:35;19.30;99.90
85456;DHT22;75846;43.732;10.404;2024-03-23T10:42:04;19.50;99.90
85456;DHT22;75846;43.732;10.404;2024-03-23T10:44:30;19.70;99.90
85456;DHT22;75846;43.732;10.404;2024-03-23T10:46:58;20.20;99.90
85456;DHT22;75846;43.732;10.404;2024-03-23T10:49:26;21.10;99.90
85456;DHT22;75846;43.732;10.404;2024-03-23T10:51:59;21.60;99.90
85456;DHT22;75846;43.732;10.404;2024-03-23T10:54:25;22.30;99.90
85456;DHT22;75846;43.732;10.404;2024-03-23T10:57:00;22.70;99.90
85456;DHT22;75846;43.732;10.404;2024-03-23T10:59:27;21.90;99.90
85456;DHT22;75846;43.732;10.404;2024-03-23T11:01:56;21.20;99.90
85456;DHT22;75846;43.732;10.404;2024-03-23T11:04:33;20.40;99.90
85456;DHT22;75846;43.732;10.404;2024-03-23T11:07:00;20.10;99.90
85456;DHT22;75846;43.732;10.404;2024-03-23T11:09:38;19.60;99.90
85456;DHT22;75846;43.732;10.404;2024-03-23T11:12:28;19.10;99.90
85456;DHT22;75846;43.732;10.404;2024-03-23T11:14:59;18.80;99.90
85456;DHT22;75846;43.732;10.404;2024-03-23T11:17:58;18.40;99.90
85456;DHT22;75846;43.732;10.404;2024-03-23T11:20:32;18.30;99.90
85456;DHT22;75846;43.732;10.404;2024-03-23T11:22:59;18.30;99.90
85456;DHT22;75846;43.732;10.404;2024-03-23T11:25:27;18.20;99.90
85456;DHT22;75846;43.732;10.404;2024-03-23T11:27:56;18.10;99.90
85456;DHT22;75846;43.732;10.404;2024-03-23T11:30:24;18.10;99.90
85456;DHT22;75846;43.732;10.404;2024-03-23T11:32:52;17.90;99.90
85456;DHT22;75846;43.732;10.404;2024-03-23T11:35:27;17.70;99.90
85456;DHT22;75846;43.732;10.404;2024-03-23T11:38:04;17.70;99.90
85456;DHT22;75846;43.732;10.404;2024-03-23T11:40:31;17.90;99.90
85456;DHT22;75846;43.732;10.404;2024-03-23T11:43:01;18.30;99.90
85456;DHT22;75846;43.732;10.404;2024-03-23T11:45:27;19.10;99.90
85456;DHT22;75846;43.732;10.404;2024-03-23T11:48:08;19.50;99.90
85456;DHT22;75846;43.732;10.404;2024-03-23T11:50:37;19.60;99.90
85456;DHT22;75846;43.732;10.404;2024-03-23T11:53:15;19.50;99.90
85456;DHT22;75846;43.732;10.404;2024-03-23T11:55:43;19.70;99.90
85456;DHT22;75846;43.732;10.404;2024-03-23T11:58:12;19.90;99.90
85456;DHT22;75846;43.732;10.404;2024-03-23T12:00:39;20.00;99.90
85456;DHT22;75846;43.732;10.404;2024-03-23T12:03:07;20.00;99.90
85456;DHT22;75846;43.732;10.404;2024-03-23T12:05:33;19.90;99.90
85456;DHT22;75846;43.732;10.404;2024-03-23T12:08:23;20.40;99.90
85456;DHT22;75846;43.732;10.404;2024-03-23T12:10:51;21.40;99.90
85456;DHT22;75846;43.732;10.404;2024-03-23T12:13:21;21.70;99.90
85456;DHT22;75846;43.732;10.404;2024-03-23T12:15:50;21.70;99.90
85456;DHT22;75846;43.732;10.404;2024-03-23T12:18:17;21.60;99.90
85456;DHT22;75846;43.732;10.404;2024-03-23T12:20:45;21.20;99.90
85456;DHT22;75846;43.732;10.404;2024-03-23T12:23:11;20.60;99.90
85456;DHT22;75846;43.732;10.404;2024-03-23T12:25:53;20.40;99.90
85456;DHT22;75846;43.732;10.404;2024-03-23T12:28:20;20.30;99.90
85456;DHT22;75846;43.732;10.404;2024-03-23T12:30:47;20.10;99.90
85456;DHT22;75846;43.732;10.404;2024-03-23T12:33:14;20.10;99.90
85456;DHT22;75846;43.732;10.404;2024-03-23T12:35:41;19.80;99.90
85456;DHT22;75846;43.732;10.404;2024-03-23T12:38:07;19.90;99.90
85456;DHT22;75846;43.732;10.404;2024-03-23T12:40:34;19.90;99.90
85456;DHT22;75846;43.732;10.404;2024-03-23T12:43:00;19.90;99.90
85456;DHT22;75846;43.732;10.404;2024-03-23T12:45:29;19.60;99.90
85456;DHT22;75846;43.732;10.404;2024-03-23T12:47:55;19.10;99.90
85456;DHT22;75846;43.732;10.404;2024-03-23T12:50:22;18.90;99.90
85456;DHT22;75846;43.732;10.404;2024-03-23T12:52:48;18.90;99.90
85456;DHT22;75846;43.732;10.404;2024-03-23T12:55:16;18.80;99.90
85456;DHT22;75846;43.732;10.404;2024-03-23T12:57:42;18.70;99.90
85456;DHT22;75846;43.732;10.404;2024-03-23T13:00:10;18.70;99.90
85456;DHT22;75846;43.732;10.404;2024-03-23T13:02:39;18.50;99.90
85456;DHT22;75846;43.732;10.404;2024-03-23T13:05:07;18.60;99.90
85456;DHT22;75846;43.732;10.404;2024-03-23T13:07:34;18.70;99.90
85456;DHT22;75846;43.732;10.404;2024-03-23T13:10:03;18.70;99.90
85456;DHT22;75846;43.732;10.404;2024-03-23T13:12:31;18.70;99.90
85456;DHT22;75846;43.732;10.404;2024-03-23T13:14:59;18.40;99.90
85456;DHT22;75846;43.732;10.404;2024-03-23T13:17:25;18.10;99.90
85456;DHT22;75846;43.732;10.404;2024-03-23T13:19:55;18.00;99.90
85456;DHT22;75846;43.732;10.404;2024-03-23T13:22:22;17.90;99.90
85456;DHT22;75846;43.732;10.404;2024-03-23T13:24:49;17.90;99.90
85456;DHT22;75846;43.732;10.404;2024-03-23T13:27:16;17.80;99.90
85456;DHT22;75846;43.732;10.404;2024-03-23T13:29:43;17.70;99.90
85456;DHT22;75846;43.732;10.404;2024-03-23T13:32:11;17.80;99.90
85456;DHT22;75846;43.732;10.404;2024-03-23T13:34:39;17.90;99.90
85456;DHT22;75846;43.732;10.404;2024-03-23T13:37:07;18.00;99.90
85456;DHT22;75846;43.732;10.404;2024-03-23T13:39:35;18.00;99.90
85456;DHT22;75846;43.732;10.404;2024-03-23T13:42:01;18.00;99.90
85456;DHT22;75846;43.732;10.404;2024-03-23T13:44:29;18.00;99.90
85456;DHT22;75846;43.732;10.404;2024-03-23T13:46:55;17.90;99.90
85456;DHT22;75846;43.732;10.404;2024-03-23T13:49:27;17.90;99.90
85456;DHT22;75846;43.732;10.404;2024-03-23T13:51:54;17.70;99.90
85456;DHT22;75846;43.732;10.404;2024-03-23T13:54:24;17.70;99.90
85456;DHT22;75846;43.732;10.404;2024-03-23T13:56:51;17.70;99.90
85456;DHT22;75846;43.732;10.404;2024-03-23T13:59:18;17.60;99.90
85456;DHT22;75846;43.732;10.404;2024-03-23T14:01:45;17.50;99.90
85456;DHT22;75846;43.732;10.404;2024-03-23T14:04:12;17.40;99.90
85456;DHT22;75846;43.732;10.404;2024-03-23T14:06:38;17.40;99.90
85456;DHT22;75846;43.732;10.404;2024-03-23T14:09:07;17.40;99.90
85456;DHT22;75846;43.732;10.404;2024-03-23T14:11:36;17.40;99.90
85456;DHT22;75846;43.732;10.404;2024-03-23T14:14:03;17.50;99.90
85456;DHT22;75846;43.732;10.404;2024-03-23T14:16:30;17.50;99.90
85456;DHT22;75846;43.732;10.404;2024-03-23T14:18:57;17.50;99.90
85456;DHT22;75846;43.732;10.404;2024-03-23T14:21:23;17.70;99.90
85456;DHT22;75846;43.732;10.404;2024-03-23T14:23:50;17.90;99.90
85456;DHT22;75846;43.732;10.404;2024-03-23T14:26:17;18.00;99.90
85456;DHT22;75846;43.732;10.404;2024-03-23T14:28:45;18.00;99.90
85456;DHT22;75846;43.732;10.404;2024-03-23T14:31:12;18.10;99.90
85456;DHT22;75846;43.732;10.404;2024-03-23T14:33:39;18.10;99.90
85456;DHT22;75846;43.732;10.404;2024-03-23T14:36:14;18.00;99.90
85456;DHT22;75846;43.732;10.404;2024-03-23T14:38:47;17.90;99.90
85456;DHT22;75846;43.732;10.404;2024-03-23T14:41:13;17.90;99.90
85456;DHT22;75846;43.732;10.404;2024-03-23T14:43:40;17.90;99.90
85456;DHT22;75846;43.732;10.404;2024-03-23T14:46:11;17.90;99.90
85456;DHT22;75846;43.732;10.404;2024-03-23T14:48:40;17.80;99.90
85456;DHT22;75846;43.732;10.404;2024-03-23T14:51:07;17.90;99.90
85456;DHT22;75846;43.732;10.404;2024-03-23T14:53:36;17.90;99.90
85456;DHT22;75846;43.732;10.404;2024-03-23T14:56:04;17.90;99.90
85456;DHT22;75846;43.732;10.404;2024-03-23T14:58:31;17.90;99.90
85456;DHT22;75846;43.732;10.404;2024-03-23T15:01:01;17.90;99.90
85456;DHT22;75846;43.732;10.404;2024-03-23T15:03:29;17.90;99.90
85456;DHT22;75846;43.732;10.404;2024-03-23T15:05:57;17.90;99.90
85456;DHT22;75846;43.732;10.404;2024-03-23T15:08:25;17.90;99.90
85456;DHT22;75846;43.732;10.404;2024-03-23T15:10:53;17.90;99.90
85456;DHT22;75846;43.732;10.404;2024-03-23T15:13:19;17.90;99.90
85456;DHT22;75846;43.732;10.404;2024-03-23T15:15:49;17.90;99.90
85456;DHT22;75846;43.732;10.404;2024-03-23T15:18:15;17.90;99.90
85456;DHT22;75846;43.732;10.404;2024-03-23T15:20:53;17.90;99.90
85456;DHT22;75846;43.732;10.404;2024-03-23T15:23:19;17.80;99.90
85456;DHT22;75846;43.732;10.404;2024-03-23T15:25:46;17.80;99.90
85456;DHT22;75846;43.732;10.404;2024-03-23T15:28:12;17.80;99.90
85456;DHT22;75846;43.732;10.404;2024-03-23T15:30:39;17.80;99.90
85456;DHT22;75846;43.732;10.404;2024-03-23T15:33:05;17.70;99.90
85456;DHT22;75846;43.732;10.404;2024-03-23T15:35:33;17.70;99.90
85456;DHT22;75846;43.732;10.404;2024-03-23T15:38:00;17.70;99.90
85456;DHT22;75846;43.732;10.404;2024-03-23T15:40:28;17.70;99.90
85456;DHT22;75846;43.732;10.404;2024-03-23T15:42:54;17.60;99.90
85456;DHT22;75846;43.732;10.404;2024-03-23T15:45:21;17.60;99.90
85456;DHT22;75846;43.732;10.404;2024-03-23T15:47:47;17.60;99.90
85456;DHT22;75846;43.732;10.404;2024-03-23T15:50:15;17.60;99.90
85456;DHT22;75846;43.732;10.404;2024-03-23T15:52:41;17.50;99.90
85456;DHT22;75846;43.732;10.404;2024-03-23T15:55:10;17.50;99.90
85456;DHT22;75846;43.732;10.404;2024-03-23T15:57:36;17.60;99.90
85456;DHT22;75846;43.732;10.404;2024-03-23T16:00:05;17.50;99.90
85456;DHT22;75846;43.732;10.404;2024-03-23T16:02:32;17.50;99.90
85456;DHT22;75846;43.732;10.404;2024-03-23T16:04:59;17.50;99.90
85456;DHT22;75846;43.732;10.404;2024-03-23T16:07:28;17.40;99.90
85456;DHT22;75846;43.732;10.404;2024-03-23T16:09:55;17.40;99.90